地図

経路データ

SID SEASON NUMBER BASIN SUBBASIN NAME ISO_TIME NATURE LAT LON WMO_WIND WMO_PRES WMO_AGENCY TRACK_TYPE DIST2LAND LANDFALL IFLAG USA_AGENCY USA_ATCF_ID USA_LAT USA_LON USA_RECORD USA_STATUS USA_WIND USA_PRES USA_SSHS USA_R34_NE USA_R34_SE USA_R34_SW USA_R34_NW USA_R50_NE USA_R50_SE USA_R50_SW USA_R50_NW USA_R64_NE USA_R64_SE USA_R64_SW USA_R64_NW USA_POCI USA_ROCI USA_RMW USA_EYE TOKYO_LAT TOKYO_LON TOKYO_GRADE TOKYO_WIND TOKYO_PRES TOKYO_R50_DIR TOKYO_R50_LONG TOKYO_R50_SHORT TOKYO_R30_DIR TOKYO_R30_LONG TOKYO_R30_SHORT TOKYO_LAND CMA_LAT CMA_LON CMA_CAT CMA_WIND CMA_PRES HKO_LAT HKO_LON HKO_CAT HKO_WIND HKO_PRES NEWDELHI_LAT NEWDELHI_LON NEWDELHI_GRADE NEWDELHI_WIND NEWDELHI_PRES NEWDELHI_CI NEWDELHI_DP NEWDELHI_POCI REUNION_LAT REUNION_LON REUNION_TYPE REUNION_WIND REUNION_PRES REUNION_TNUM REUNION_CI REUNION_RMW REUNION_R34_NE REUNION_R34_SE REUNION_R34_SW REUNION_R34_NW REUNION_R50_NE REUNION_R50_SE REUNION_R50_SW REUNION_R50_NW REUNION_R64_NE REUNION_R64_SE REUNION_R64_SW REUNION_R64_NW BOM_LAT BOM_LON BOM_TYPE BOM_WIND BOM_PRES BOM_TNUM BOM_CI BOM_RMW BOM_R34_NE BOM_R34_SE BOM_R34_SW BOM_R34_NW BOM_R50_NE BOM_R50_SE BOM_R50_SW BOM_R50_NW BOM_R64_NE BOM_R64_SE BOM_R64_SW BOM_R64_NW BOM_ROCI BOM_POCI BOM_EYE BOM_POS_METHOD BOM_PRES_METHOD NADI_LAT NADI_LON NADI_CAT NADI_WIND NADI_PRES WELLINGTON_LAT WELLINGTON_LON WELLINGTON_WIND WELLINGTON_PRES DS824_LAT DS824_LON DS824_STAGE DS824_WIND DS824_PRES TD9636_LAT TD9636_LON TD9636_STAGE TD9636_WIND TD9636_PRES TD9635_LAT TD9635_LON TD9635_WIND TD9635_PRES TD9635_ROCI NEUMANN_LAT NEUMANN_LON NEUMANN_CLASS NEUMANN_WIND NEUMANN_PRES MLC_LAT MLC_LON MLC_CLASS MLC_WIND MLC_PRES USA_GUST BOM_GUST BOM_GUST_PER REUNION_GUST REUNION_GUST_PER USA_SEAHGT USA_SEARAD_NE USA_SEARAD_SE USA_SEARAD_SW USA_SEARAD_NW STORM_SPEED STORM_DIR
1928284N17324 1928 59 NA NA NOT_NAMED 1928-10-10 00:00:00 TS 16.7000 -35.6000 40 hurdat_atl main 1950 1950 O_____________ hurdat_atl AL061928 16.7000 -35.6000 TS 40 0 9 311
1928284N17324 1928 59 NA NA NOT_NAMED 1928-10-10 03:00:00 TS 16.9901 -35.9498 main 1984 1984 P_____________ AL061928 16.9901 -35.9498 TS 42 0 9 312
1928284N17324 1928 59 NA NA NOT_NAMED 1928-10-10 06:00:00 TS 17.3000 -36.3000 45 hurdat_atl main 2030 2030 O_____________ hurdat_atl AL061928 17.3000 -36.3000 TS 45 0 9 314
1928284N17324 1928 59 NA NA NOT_NAMED 1928-10-10 09:00:00 TS 17.6424 -36.6501 main 2075 2075 P_____________ AL061928 17.6424 -36.6501 TS 47 0 10 316
1928284N17324 1928 59 NA NA NOT_NAMED 1928-10-10 12:00:00 TS 18.0000 -37.0000 50 hurdat_atl main 2109 2109 O_____________ hurdat_atl AL061928 18.0000 -37.0000 TS 50 0 10 317
1928284N17324 1928 59 NA NA NOT_NAMED 1928-10-10 15:00:00 TS 18.3499 -37.3501 main 2143 2141 P_____________ AL061928 18.3499 -37.3501 TS 52 0 10 316
1928284N17324 1928 59 NA NA NOT_NAMED 1928-10-10 18:00:00 TS 18.7000 -37.7000 55 hurdat_atl main 2167 2167 O_____________ hurdat_atl AL061928 18.7000 -37.7000 TS 55 0 10 316
1928284N17324 1928 59 NA NA NOT_NAMED 1928-10-10 21:00:00 TS 19.0424 -38.0502 main 2183 2183 P_____________ AL061928 19.0424 -38.0502 TS 57 0 10 317
1928284N17324 1928 59 NA NA NOT_NAMED 1928-10-11 00:00:00 TS 19.4000 -38.4000 60 hurdat_atl main 2195 2195 O_____________ hurdat_atl AL061928 19.4000 -38.4000 TS 60 0 10 319
1928284N17324 1928 59 NA NA NOT_NAMED 1928-10-11 03:00:00 TS 19.7924 -38.7501 main 2202 2202 P_____________ AL061928 19.7924 -38.7501 TS 60 0 10 321
1928284N17324 1928 59 NA NA NOT_NAMED 1928-10-11 06:00:00 TS 20.2000 -39.1000 60 hurdat_atl main 2217 2217 O_____________ hurdat_atl AL061928 20.2000 -39.1000 TS 60 0 10 321
1928284N17324 1928 59 NA NA NOT_NAMED 1928-10-11 09:00:00 TS 20.5999 -39.4502 main 2227 2227 P_____________ AL061928 20.5999 -39.4502 TS 60 0 10 321
1928284N17324 1928 59 NA NA NOT_NAMED 1928-10-11 12:00:00 TS 21.0000 -39.8000 60 hurdat_atl main 2244 2244 O_____________ hurdat_atl AL061928 21.0000 -39.8000 TS 60 0 10 320
1928284N17324 1928 59 NA NA NOT_NAMED 1928-10-11 15:00:00 TS 21.3925 -40.1577 main 2253 2253 P_____________ AL061928 21.3925 -40.1577 TS 60 0 10 321
1928284N17324 1928 59 NA NA NOT_NAMED 1928-10-11 18:00:00 TS 21.8000 -40.5000 60 hurdat_atl main 2269 2269 O_____________ hurdat_atl AL061928 21.8000 -40.5000 TS 60 0 10 325
1928284N17324 1928 59 NA NA NOT_NAMED 1928-10-11 21:00:00 TS 22.2424 -40.8003 main 2287 2287 P_____________ AL061928 22.2424 -40.8003 TS 60 0 11 328
1928284N17324 1928 59 NA NA NOT_NAMED 1928-10-12 00:00:00 TS 22.7000 -41.1000 60 hurdat_atl main 2316 2316 O_____________ hurdat_atl AL061928 22.7000 -41.1000 TS 60 0 11 327
1928284N17324 1928 59 NA NA NOT_NAMED 1928-10-12 03:00:00 TS 23.1500 -41.4427 main 2336 2336 P_____________ AL061928 23.1500 -41.4427 TS 60 0 11 324
1928284N17324 1928 59 NA NA NOT_NAMED 1928-10-12 06:00:00 TS 23.6000 -41.8000 60 hurdat_atl main 2362 2362 O_____________ hurdat_atl AL061928 23.6000 -41.8000 TS 60 0 11 325
1928284N17324 1928 59 NA NA NOT_NAMED 1928-10-12 09:00:00 TS 24.0423 -42.1355 main 2385 2385 P_____________ AL061928 24.0423 -42.1355 TS 60 0 11 325
1928284N17324 1928 59 NA NA NOT_NAMED 1928-10-12 12:00:00 TS 24.5000 -42.5000 60 hurdat_atl main 2414 2414 O_____________ hurdat_atl AL061928 24.5000 -42.5000 TS 60 0 12 323
1928284N17324 1928 59 NA NA NOT_NAMED 1928-10-12 15:00:00 TS 24.9848 -42.9204 main 2444 2418 P_____________ AL061928 24.9848 -42.9204 TS 60 0 13 321
1928284N17324 1928 59 NA NA NOT_NAMED 1928-10-12 18:00:00 TS 25.5000 -43.4000 60 hurdat_atl main 2418 2385 O_____________ hurdat_atl AL061928 25.5000 -43.4000 TS 60 0 14 319
1928284N17324 1928 59 NA NA NOT_NAMED 1928-10-12 21:00:00 TS 26.0426 -43.9500 main 2375 2348 P_____________ AL061928 26.0426 -43.9500 TS 62 0 15 318
1928284N17324 1928 59 NA NA NOT_NAMED 1928-10-13 00:00:00 TS 26.6000 -44.5000 65 hurdat_atl main 2348 2287 O_____________ hurdat_atl AL061928 26.6000 -44.5000 HU 65 1 14 320
1928284N17324 1928 59 NA NA NOT_NAMED 1928-10-13 03:00:00 TS 27.1349 -44.9879 main 2287 2212 P_____________ AL061928 27.1349 -44.9879 HU 67 1 14 324
1928284N17324 1928 59 NA NA NOT_NAMED 1928-10-13 06:00:00 TS 27.7000 -45.4000 70 hurdat_atl main 2212 2137 O_____________ hurdat_atl AL061928 27.7000 -45.4000 HU 70 1 14 330
1928284N17324 1928 59 NA NA NOT_NAMED 1928-10-13 09:00:00 TS 28.3200 -45.7746 main 2137 2056 P_____________ AL061928 28.3200 -45.7746 HU 70 1 14 338
1928284N17324 1928 59 NA NA NOT_NAMED 1928-10-13 12:00:00 TS 29.0000 -46.0000 70 hurdat_atl main 2056 1978 O_____________ hurdat_atl AL061928 29.0000 -46.0000 HU 70 1 14 350
1928284N17324 1928 59 NA NA NOT_NAMED 1928-10-13 15:00:00 TS 29.7198 -46.0473 main 1981 1898 P_____________ AL061928 29.7198 -46.0473 HU 72 1 15 3
1928284N17324 1928 59 NA NA NOT_NAMED 1928-10-13 18:00:00 TS 30.5000 -45.9000 75 hurdat_atl main 1898 1819 O_____________ hurdat_atl AL061928 30.5000 -45.9000 HU 75 1 16 12
1928284N17324 1928 59 NA NA NOT_NAMED 1928-10-13 21:00:00 TS 31.3118 -45.6679 main 1819 1748 P_____________ AL061928 31.3118 -45.6679 HU 77 1 18 19
1928284N17324 1928 59 NA NA NOT_NAMED 1928-10-14 00:00:00 TS 32.2000 -45.2000 80 hurdat_atl main 1740 1668 O_____________ hurdat_atl AL061928 32.2000 -45.2000 HU 80 1 21 28
1928284N17324 1928 59 NA NA NOT_NAMED 1928-10-14 03:00:00 TS 33.1693 -44.4833 main 1662 1607 P_____________ AL061928 33.1693 -44.4833 HU 80 1 25 35
1928284N17324 1928 59 NA NA NOT_NAMED 1928-10-14 06:00:00 TS 34.2000 -43.5000 80 hurdat_atl main 1601 1554 O_____________ hurdat_atl AL061928 34.2000 -43.5000 HU 80 1 28 41
1928284N17324 1928 59 NA NA NOT_NAMED 1928-10-14 09:00:00 TS 35.2739 -42.2745 main 1550 1527 P_____________ AL061928 35.2739 -42.2745 HU 80 1 29 44
1928284N17324 1928 59 NA NA NOT_NAMED 1928-10-14 12:00:00 TS 36.3000 -41.0000 80 hurdat_atl main 1526 1508 O_____________ hurdat_atl AL061928 36.3000 -41.0000 HU 80 1 27 45
1928284N17324 1928 59 NA NA NOT_NAMED 1928-10-14 15:00:00 TS 37.1938 -39.9221 main 1511 1502 P_____________ AL061928 37.1938 -39.9221 HU 77 1 23 43
1928284N17324 1928 59 NA NA NOT_NAMED 1928-10-14 18:00:00 TS 38.0000 -39.0000 75 hurdat_atl main 1502 1492 O_____________ hurdat_atl AL061928 38.0000 -39.0000 HU 75 1 21 41
1928284N17324 1928 59 NA NA NOT_NAMED 1928-10-14 21:00:00 TS 38.8017 -38.1739 main 1492 1488 P_____________ AL061928 38.8017 -38.1739 HU 70 1 19 38
1928284N17324 1928 59 NA NA NOT_NAMED 1928-10-15 00:00:00 TS 39.5000 -37.5000 65 hurdat_atl main 1488 1482 O_____________ hurdat_atl AL061928 39.5000 -37.5000 HU 65 1 16 37
1928284N17324 1928 59 NA NA NOT_NAMED 1928-10-15 03:00:00 TS 40.0454 -36.9632 main 1489 1483 P_____________ AL061928 40.0454 -36.9632 HU 57 0 13 37
1928284N17324 1928 59 NA NA NOT_NAMED 1928-10-15 06:00:00 ET 40.5000 -36.5000 50 hurdat_atl main 1492 O_____________ hurdat_atl AL061928 40.5000 -36.5000 EX 50 -4 12 38

IBTrACS Databaseについて

本データベースは、米国NOAAが公開する1842年以降の世界の熱帯低気圧のベストトラックデータアーカイブInternational Best Track Archive for Climate Stewardship (IBTrACS)を、ウェブで閲覧しやすい形式に変換したものです。

最終更新日:2021-10-21